Time;durP1;ratioP1;P1;durP2;ratioP2;P2;SDS_P1;SDS_P2;PMS_P1;PMS_P2;Temp;Humidity;BMP_temperature;BMP_pressure;BME280_temperature;BME280_humidity;BME280_pressure;Samples;Min_cycle;Max_cycle;Signal;HPM_P1;HPM_P2
2021/11/09 00:02:14;;;;;;;103.13;19.85;;;;;;;11.11;97.02;100482.41;5050522;28;20036;-21
2021/11/09 00:04:42;;;;;;;88.20;20.20;;;;;;;11.52;96.32;100473.97;5050508;28;20106;-21
2021/11/09 00:12:22;;;;;;;93.50;20.60;;;;;;;11.47;93.79;100455.13;5050229;28;20120;-21
2021/11/09 00:14:48;;;;;;;103.95;20.35;;;;;;;11.51;94.61;100483.03;5049587;28;20053;-21
2021/11/09 00:17:15;;;;;;;72.53;19.58;;;;;;;11.59;94.13;100480.09;5050793;28;20055;-21
2021/11/09 00:19:40;;;;;;;76.45;18.17;;;;;;;11.64;93.59;100477.59;5050405;28;20076;-21
2021/11/09 00:22:06;;;;;;;125.82;19.00;;;;;;;11.52;93.28;100475.81;5050490;28;20044;-22
2021/11/09 00:24:31;;;;;;;52.85;16.42;;;;;;;11.02;96.19;100484.50;5050270;28;20463;-21
2021/11/09 00:26:57;;;;;;;142.38;19.67;;;;;;;10.97;96.82;100473.63;5032472;28;20021;-21
2021/11/09 00:29:22;;;;;;;92.40;18.35;;;;;;;10.88;97.23;100481.06;5050452;28;20029;-21
2021/11/09 00:31:48;;;;;;;136.73;20.45;;;;;;;10.94;97.41;100484.75;5050295;28;20414;-21
2021/11/09 00:34:13;;;;;;;119.30;19.88;;;;;;;10.95;96.58;100481.03;5049894;28;20040;-21
2021/11/09 00:36:39;;;;;;;82.75;18.95;;;;;;;11.04;96.37;100487.78;5050436;28;20416;-21
2021/11/09 00:39:06;;;;;;;83.10;17.08;;;;;;;10.75;97.05;100468.59;5050094;28;20095;-22
2021/11/09 00:41:32;;;;;;;72.90;18.05;;;;;;;10.78;96.99;100478.00;5032540;28;20025;-22
2021/11/09 00:43:57;;;;;;;134.35;20.83;;;;;;;10.94;97.22;100485.56;5050351;28;20409;-21
2021/11/09 00:46:23;;;;;;;88.63;20.23;;;;;;;10.92;97.59;100494.81;5049792;28;20914;-21
2021/11/09 00:48:48;;;;;;;59.65;20.17;;;;;;;11.21;96.54;100494.25;5049873;28;20075;-21
2021/11/09 00:51:14;;;;;;;113.47;19.25;;;;;;;11.14;96.32;100488.16;5050094;28;20451;-21
2021/11/09 00:53:39;;;;;;;82.13;20.50;;;;;;;11.57;95.13;100502.72;5049926;28;20036;-21
2021/11/09 00:56:05;;;;;;;87.82;19.88;;;;;;;11.42;95.29;100497.66;5049818;28;20052;-21
2021/11/09 00:58:31;;;;;;;67.25;17.90;;;;;;;11.43;94.99;100485.94;5049455;28;20032;-21
2021/11/09 01:00:57;;;;;;;118.65;22.35;;;;;;;11.34;95.46;100476.53;5049647;28;20056;-20
2021/11/09 01:03:22;;;;;;;133.60;20.42;;;;;;;11.50;95.27;100492.06;5049401;28;20390;-21
2021/11/09 01:05:48;;;;;;;112.18;21.73;;;;;;;11.65;94.52;100484.59;5049703;28;20044;-21
2021/11/09 01:08:15;;;;;;;157.45;22.85;;;;;;;11.53;94.33;100466.78;5049068;28;20033;-21
2021/11/09 01:10:44;;;;;;;81.20;22.73;;;;;;;11.68;93.35;100479.84;5049578;28;20040;-21
2021/11/09 01:13:10;;;;;;;89.88;21.92;;;;;;;11.66;94.34;100480.88;5049411;28;20057;-21
2021/11/09 01:15:37;;;;;;;126.72;22.42;;;;;;;11.79;94.15;100484.47;5031714;28;20029;-21
2021/11/09 01:18:03;;;;;;;55.97;18.77;;;;;;;11.44;94.45;100487.56;5049438;28;20037;-21
2021/11/09 01:20:29;;;;;;;59.83;19.98;;;;;;;11.33;95.40;100490.94;5048990;28;20035;-22
2021/11/09 01:22:56;;;;;;;89.63;21.23;;;;;;;11.44;96.31;100487.56;5049298;28;20115;-21
2021/11/09 01:25:23;;;;;;;143.47;22.80;;;;;;;11.66;95.21;100502.22;5049229;28;20031;-21
2021/11/09 01:27:48;;;;;;;121.47;23.17;;;;;;;11.55;95.04;100486.91;5049167;28;20365;-21
2021/11/09 01:30:15;;;;;;;77.82;21.75;;;;;;;11.08;96.59;100480.19;5049124;28;20067;-21
2021/11/09 01:32:41;;;;;;;103.47;22.98;;;;;;;11.23;96.52;100492.19;5048971;28;20029;-21
2021/11/09 01:35:07;;;;;;;81.35;25.42;;;;;;;11.15;97.01;100479.09;5031085;28;20079;-21
2021/11/09 01:37:33;;;;;;;126.32;24.23;;;;;;;10.86;99.44;100483.94;5048972;28;20025;-21
2021/11/09 01:39:58;;;;;;;85.32;20.85;;;;;;;10.71;100.00;100477.22;5031245;28;20060;-23
2021/11/09 01:42:25;;;;;;;59.00;21.70;;;;;;;10.74;99.17;100447.44;5048946;28;20033;-22
2021/11/09 01:44:51;;;;;;;99.63;23.05;;;;;;;10.71;99.83;100462.03;5049198;28;20037;-21
2021/11/09 01:47:17;;;;;;;57.42;21.27;;;;;;;10.24;100.00;100429.28;5049004;28;20123;-21
2021/11/09 01:49:43;;;;;;;85.50;22.92;;;;;;;10.52;100.00;100446.88;5048946;28;20029;-21
2021/11/09 01:52:08;;;;;;;99.25;24.98;;;;;;;10.40;100.00;100444.88;5048767;28;20045;-22
2021/11/09 01:54:34;;;;;;;65.43;24.15;;;;;;;10.49;100.00;100436.66;5049064;28;20096;-21
2021/11/09 01:57:00;;;;;;;92.75;25.38;;;;;;;10.26;100.00;100444.06;5048449;28;20472;-21
2021/11/09 01:59:29;;;;;;;125.20;27.40;;;;;;;10.49;100.00;100447.31;5048614;28;20028;-21
2021/11/09 02:01:55;;;;;;;92.65;24.63;;;;;;;10.49;100.00;100453.47;5048705;28;20122;-21
2021/11/09 02:04:20;;;;;;;74.25;23.60;;;;;;;10.60;100.00;100454.66;5048453;28;20065;-21
2021/11/09 02:06:46;;;;;;;89.13;23.90;;;;;;;10.60;100.00;100473.34;5048569;28;20713;-21
2021/11/09 02:09:16;;;;;;;57.58;20.25;;;;;;;10.64;100.00;100459.41;5031195;28;20047;-21
2021/11/09 02:11:42;;;;;;;64.05;21.33;;;;;;;10.70;100.00;100439.03;5048206;28;20029;-21
2021/11/09 02:14:08;;;;;;;56.42;20.80;;;;;;;10.78;100.00;100456.66;5030087;28;20224;-23
2021/11/09 02:16:35;;;;;;;54.47;22.85;;;;;;;10.72;100.00;100474.31;5048724;28;20511;-21
2021/11/09 02:19:00;;;;;;;57.88;23.85;;;;;;;10.95;100.00;100479.19;5048388;28;20174;-21
2021/11/09 02:21:26;;;;;;;56.70;24.33;;;;;;;10.90;99.83;100483.53;5030737;28;20112;-21
2021/11/09 02:23:51;;;;;;;57.65;23.77;;;;;;;11.11;98.58;100493.09;5048354;28;20029;-21
2021/11/09 02:26:19;;;;;;;53.30;24.10;;;;;;;11.24;98.43;100501.88;5048009;28;20395;-21
2021/11/09 02:28:45;;;;;;;68.10;25.07;;;;;;;11.58;96.39;100507.84;5048354;28;20048;-21
2021/11/09 02:31:10;;;;;;;59.38;23.73;;;;;;;11.67;95.76;100511.09;5046838;28;20276;-21
2021/11/09 02:33:36;;;;;;;71.72;24.20;;;;;;;11.84;94.79;100506.03;5048499;28;20024;-21
2021/11/09 02:36:02;;;;;;;56.78;23.58;;;;;;;11.57;95.97;100490.19;5047957;28;20029;-21
2021/11/09 02:38:27;;;;;;;58.67;23.70;;;;;;;11.19;98.16;100499.00;5048196;28;20451;-21
2021/11/09 02:40:53;;;;;;;64.32;21.80;;;;;;;11.18;98.08;100504.56;5029921;28;20029;-21
2021/11/09 02:43:20;;;;;;;61.45;21.90;;;;;;;11.20;97.93;100500.66;5048249;28;20507;-22
2021/11/09 02:48:27;;;;;;;;;;;;;;;11.20;97.51;100502.50;5048312;28;20033;-21
2021/11/09 02:50:59;;;;;;;53.85;19.58;;;;;;;10.89;99.56;100500.53;5047918;28;19963;-21
2021/11/09 03:01:22;;;;;;;59.65;20.23;;;;;;;11.06;99.64;100507.06;5048108;28;20512;-21
2021/11/09 03:08:47;;;;;;;76.70;22.00;;;;;;;11.10;98.57;100516.28;5047937;28;20424;-21
2021/11/09 03:11:12;;;;;;;59.22;20.88;;;;;;;10.94;99.52;100528.25;5047519;28;20039;-21
2021/11/09 03:13:39;;;;;;;48.63;19.50;;;;;;;10.95;99.60;100532.56;5047650;28;20061;-21
2021/11/09 03:16:08;;;;;;;52.65;19.92;;;;;;;10.92;100.00;100540.16;5030328;28;20111;-21
2021/11/09 03:18:41;;;;;;;50.95;19.08;;;;;;;10.83;100.00;100540.41;5047598;28;20474;-21
2021/11/09 03:40:14;;;;;;;63.22;21.33;;;;;;;10.47;100.00;100534.72;5048040;28;20075;-21
2021/11/09 03:45:35;;;;;;;61.40;22.50;;;;;;;10.43;100.00;100545.78;5010329;28;20510;-21
2021/11/09 03:48:18;;;;;;;56.03;22.20;;;;;;;10.51;100.00;100562.59;5047856;28;20040;-21
2021/11/09 03:50:45;;;;;;;84.13;25.70;;;;;;;10.71;100.00;100592.75;5051111;28;20041;-21
2021/11/09 03:53:21;;;;;;;64.30;22.98;;;;;;;10.96;100.00;100589.41;5051156;28;20036;-21
2021/11/09 04:05:44;;;;;;;61.28;23.40;;;;;;;11.23;100.00;100617.69;5050886;28;20032;-21
2021/11/09 04:08:26;;;;;;;67.55;25.38;;;;;;;11.17;99.95;100615.84;5050520;28;20029;-22
2021/11/09 04:14:13;;;;;;;63.90;26.30;;;;;;;11.03;100.00;100643.59;5050467;28;20067;-21
2021/11/09 04:18:59;;;;;;;67.30;26.30;;;;;;;10.89;100.00;100649.97;5050639;28;20552;-21
2021/11/09 04:29:09;;;;;;;;;;;;;;;11.39;98.39;100667.16;5050809;28;20090;-21
2021/11/09 04:51:26;;;;;;;73.28;33.88;;;;;;;11.04;99.91;100661.25;5050125;28;20048;-22
2021/11/09 05:09:38;;;;;;;79.75;36.03;;;;;;;11.26;98.77;100649.31;5018243;28;20672;-21
2021/11/09 05:12:04;;;;;;;73.30;38.75;;;;;;;11.51;98.97;100682.53;5049582;28;20112;-23
2021/11/09 05:14:30;;;;;;;63.88;26.17;;;;;;;11.62;97.60;100680.00;5049220;28;20172;-21
2021/11/09 05:16:57;;;;;;;63.28;25.58;;;;;;;11.82;96.89;100703.19;5049970;28;20032;-21
2021/11/09 05:19:22;;;;;;;90.35;43.25;;;;;;;12.00;95.33;100710.56;5049408;28;20029;-21
2021/11/09 05:21:47;;;;;;;69.25;30.70;;;;;;;11.85;96.08;100708.94;5049604;28;20042;-21
2021/11/09 05:24:13;;;;;;;96.90;43.70;;;;;;;11.80;96.57;100716.75;5049054;28;20386;-21
2021/11/09 05:26:41;;;;;;;71.53;29.05;;;;;;;11.83;95.95;100711.00;5049159;28;20033;-21
2021/11/09 05:29:07;;;;;;;78.22;34.47;;;;;;;11.85;96.55;100702.78;5049374;28;20401;-21
2021/11/09 05:31:33;;;;;;;104.13;51.72;;;;;;;11.87;95.59;100706.06;5031170;28;20481;-21
2021/11/09 05:33:59;;;;;;;65.57;27.98;;;;;;;11.98;95.39;100712.63;5031168;28;20040;-21
2021/11/09 05:36:33;;;;;;;57.70;25.67;;;;;;;12.04;95.13;100727.81;5049056;28;20037;-21
2021/11/09 05:39:28;;;;;;;61.78;27.20;;;;;;;12.29;94.60;100724.41;5048949;28;20037;-22
2021/11/09 05:41:54;;;;;;;63.45;28.38;;;;;;;12.14;94.40;100738.06;5035449;28;20047;-21
2021/11/09 05:44:19;;;;;;;69.82;27.83;;;;;;;12.37;93.37;100741.00;5048525;28;20404;-21
2021/11/09 05:46:45;;;;;;;63.63;26.33;;;;;;;12.67;91.96;100748.47;5049070;28;20402;-21
2021/11/09 05:49:11;;;;;;;83.40;32.03;;;;;;;12.95;90.04;100765.97;5048847;28;20118;-21
2021/11/09 05:51:36;;;;;;;83.72;35.10;;;;;;;13.09;88.39;100772.03;5049000;28;20033;-22
2021/11/09 05:54:03;;;;;;;83.97;34.63;;;;;;;12.91;89.50;100778.16;5049357;28;20864;-21
2021/11/09 05:56:28;;;;;;;72.72;32.08;;;;;;;12.95;89.65;100782.03;5048683;28;20029;-21
2021/11/09 05:58:54;;;;;;;67.50;30.63;;;;;;;12.83;89.46;100772.03;5048560;28;20047;-22
2021/11/09 06:01:20;;;;;;;74.05;36.28;;;;;;;12.27;92.98;100780.78;5048721;28;20035;-21
2021/11/09 06:03:45;;;;;;;61.85;29.35;;;;;;;12.04;94.79;100775.94;5048471;28;20064;-21
2021/11/09 06:06:10;;;;;;;54.95;23.48;;;;;;;12.09;91.48;100775.28;5048309;28;20400;-21
2021/11/09 06:08:36;;;;;;;53.63;21.52;;;;;;;11.99;90.74;100767.72;5048564;28;20082;-21
2021/11/09 06:11:02;;;;;;;59.90;23.75;;;;;;;11.89;91.99;100789.56;5029832;28;20420;-21
2021/11/09 06:13:28;;;;;;;58.00;22.48;;;;;;;11.50;92.13;100780.53;5048066;28;20106;-21
2021/11/09 06:15:53;;;;;;;54.85;21.88;;;;;;;11.56;92.31;100785.03;5048559;28;20043;-21
2021/11/09 06:18:19;;;;;;;61.33;20.83;;;;;;;11.48;92.54;100781.75;5048222;28;20489;-21
2021/11/09 06:20:44;;;;;;;58.70;22.65;;;;;;;11.72;90.59;100790.97;5048158;28;20110;-21
2021/11/09 06:23:10;;;;;;;63.95;23.33;;;;;;;11.84;90.91;100797.34;5048348;28;20120;-21
2021/11/09 06:25:35;;;;;;;51.90;21.35;;;;;;;11.73;90.41;100785.44;5048307;28;20021;-21
2021/11/09 06:28:04;;;;;;;58.78;22.17;;;;;;;12.04;89.79;100792.78;5048361;28;20056;-22
2021/11/09 06:30:29;;;;;;;70.00;22.98;;;;;;;12.06;88.83;100789.91;5048076;28;20111;-21
2021/11/09 06:32:55;;;;;;;64.15;22.02;;;;;;;11.99;88.63;100795.28;5048376;28;20037;-22
2021/11/09 06:35:21;;;;;;;53.92;20.83;;;;;;;11.58;90.13;100791.00;5048204;28;20032;-21
2021/11/09 06:37:46;;;;;;;54.00;19.25;;;;;;;11.40;92.08;100786.31;5048237;28;20033;-21
2021/11/09 06:40:12;;;;;;;55.30;20.23;;;;;;;11.36;91.92;100778.91;5047826;28;20056;-22
2021/11/09 06:42:37;;;;;;;59.00;19.73;;;;;;;10.92;93.00;100748.31;5030196;28;20032;-21
2021/11/09 06:45:04;;;;;;;49.95;19.40;;;;;;;10.83;93.34;100764.50;5048105;28;20035;-21
2021/11/09 06:47:30;;;;;;;48.92;19.33;;;;;;;11.05;93.29;100766.97;5048038;28;20036;-21
2021/11/09 06:49:55;;;;;;;56.33;20.45;;;;;;;11.35;92.07;100771.91;5047933;28;20412;-21
2021/11/09 06:52:21;;;;;;;60.90;19.50;;;;;;;11.16;92.26;100762.91;5047833;28;20094;-21
2021/11/09 06:54:47;;;;;;;59.22;19.42;;;;;;;11.08;92.77;100758.59;5047723;28;20408;-21
2021/11/09 06:57:13;;;;;;;50.10;19.33;;;;;;;11.11;92.08;100771.50;5047827;28;20035;-21
2021/11/09 06:59:38;;;;;;;56.05;22.65;;;;;;;11.31;92.43;100776.03;5047991;28;20562;-21
2021/11/09 07:02:04;;;;;;;64.30;22.70;;;;;;;11.25;92.74;100767.00;5047730;28;20029;-21
2021/11/09 07:04:30;;;;;;;58.25;21.35;;;;;;;10.94;94.01;100759.59;5047473;28;20416;-21
2021/11/09 07:06:56;;;;;;;51.13;20.67;;;;;;;11.31;94.09;100784.03;5047927;28;20037;-21
2021/11/09 07:09:22;;;;;;;55.17;20.45;;;;;;;11.79;91.67;100786.44;5048084;28;20032;-21
2021/11/09 07:11:48;;;;;;;64.22;21.92;;;;;;;12.01;89.45;100795.91;5047622;28;20067;-21
2021/11/09 07:14:13;;;;;;;58.35;21.70;;;;;;;11.81;89.41;100803.06;5029677;28;20057;-22
2021/11/09 07:16:42;;;;;;;64.28;25.42;;;;;;;11.97;89.32;100805.38;5047929;28;20033;-21
2021/11/09 07:19:08;;;;;;;;;;;;;;;11.36;92.08;100818.94;5048504;28;20029;-22
2021/11/09 07:21:34;;;;;;;57.83;23.83;;;;;;;11.77;91.38;100812.53;5047991;28;19909;-22
2021/11/09 07:23:59;;;;;;;58.63;23.20;;;;;;;11.97;92.05;100797.34;5051563;28;20040;-21
2021/11/09 07:26:25;;;;;;;69.07;23.65;;;;;;;12.00;90.44;100815.63;5051403;28;20029;-20
2021/11/09 07:28:51;;;;;;;61.38;23.98;;;;;;;11.81;91.32;100813.78;5051519;28;20029;-21
2021/11/09 07:31:18;;;;;;;67.53;23.73;;;;;;;11.87;91.20;100815.63;5051278;28;20044;-21
2021/11/09 07:33:44;;;;;;;60.67;23.73;;;;;;;12.25;89.24;100820.28;5051158;28;20500;-21
2021/11/09 07:36:09;;;;;;;67.97;24.25;;;;;;;12.30;88.72;100815.13;5051077;28;20492;-21
2021/11/09 07:38:35;;;;;;;62.47;24.17;;;;;;;11.99;89.65;100805.97;5033318;28;20554;-21
2021/11/09 07:41:00;;;;;;;64.75;24.42;;;;;;;11.99;90.60;100821.16;5051084;28;20044;-22
2021/11/09 07:43:26;;;;;;;69.68;25.08;;;;;;;12.08;90.22;100813.75;5051129;28;20032;-22
2021/11/09 07:45:51;;;;;;;71.72;25.27;;;;;;;12.34;89.75;100819.03;5051279;28;20048;-21
2021/11/09 07:48:17;;;;;;;80.45;27.50;;;;;;;12.50;90.17;100801.63;5050810;28;20083;-20
2021/11/09 07:50:42;;;;;;;73.57;26.30;;;;;;;12.57;90.13;100797.09;5051251;28;20043;-22
2021/11/09 07:53:14;;;;;;;71.05;26.38;;;;;;;12.50;89.62;100782.91;5051208;28;20028;-21
2021/11/09 07:55:45;;;;;;;71.32;26.75;;;;;;;12.25;89.80;100789.00;5033786;28;20037;-21
2021/11/09 07:58:16;;;;;;;69.35;25.52;;;;;;;12.45;89.79;100794.25;5051094;28;20054;-21
2021/11/09 08:00:46;;;;;;;76.22;27.67;;;;;;;12.56;89.78;100792.75;5050672;28;20056;-22
2021/11/09 08:03:15;;;;;;;71.55;27.88;;;;;;;12.99;87.62;100796.63;5051083;28;20025;-22
2021/11/09 08:11:04;;;;;;;68.65;26.60;;;;;;;13.27;87.18;100802.38;5050760;28;20035;-22
2021/11/09 08:13:30;;;;;;;73.25;29.85;;;;;;;13.35;87.87;100784.44;5050482;28;20052;-21
2021/11/09 08:15:56;;;;;;;85.10;35.35;;;;;;;13.36;88.50;100802.13;5050697;28;20050;-21
2021/11/09 08:18:21;;;;;;;87.65;38.67;;;;;;;13.73;85.29;100797.69;5050200;28;20412;-21
2021/11/09 08:20:47;;;;;;;71.65;28.85;;;;;;;13.64;87.41;100802.50;5050500;28;20029;-21
2021/11/09 08:23:12;;;;;;;65.82;27.38;;;;;;;13.47;88.58;100790.72;5050356;28;20103;-21
2021/11/09 08:25:38;;;;;;;68.85;28.13;;;;;;;13.39;88.52;100782.97;5050543;28;20062;-21
2021/11/09 08:28:04;;;;;;;65.90;29.83;;;;;;;13.43;88.55;100792.19;5050358;28;20414;-22
2021/11/09 08:30:30;;;;;;;75.68;30.13;;;;;;;13.51;87.87;100802.63;5050132;28;20053;-21
2021/11/09 08:32:57;;;;;;;64.95;29.30;;;;;;;13.64;87.46;100813.22;5050391;28;20028;-21
2021/11/09 08:35:25;;;;;;;134.45;60.97;;;;;;;14.27;85.62;100816.69;5049412;28;20017;-21
2021/11/09 08:37:51;;;;;;;;;;;;;;;14.23;83.61;100815.50;5051053;28;20040;-21
2021/11/09 08:40:20;;;;;;;65.35;26.40;;;;;;;13.94;86.95;100809.03;5050107;28;19912;-21
2021/11/09 08:42:53;;;;;;;68.68;28.38;;;;;;;14.28;84.75;100821.00;5050247;28;20546;-22
2021/11/09 08:47:52;;;;;;;72.35;29.92;;;;;;;14.16;83.96;100825.47;5050015;28;20087;-21
2021/11/09 08:50:18;;;;;;;66.15;28.90;;;;;;;14.29;83.75;100829.88;5049859;28;20451;-21
2021/11/09 08:52:45;;;;;;;70.32;30.42;;;;;;;14.21;84.35;100833.69;5049880;28;20112;-21
2021/11/09 09:05:54;;;;;;;68.45;29.30;;;;;;;13.85;86.94;100846.00;5049679;28;20079;-21
2021/11/09 09:08:19;;;;;;;63.75;30.92;;;;;;;14.15;86.09;100850.66;5049197;28;20471;-21
2021/11/09 09:10:45;;;;;;;66.88;32.88;;;;;;;14.53;84.31;100857.66;5049434;28;20037;-21
2021/11/09 09:13:11;;;;;;;69.28;32.78;;;;;;;14.61;84.18;100871.63;5049419;28;20092;-22
2021/11/09 09:15:37;;;;;;;61.28;27.77;;;;;;;14.28;83.83;100874.66;5049529;28;20033;-21
2021/11/09 09:18:04;;;;;;;65.82;30.80;;;;;;;14.52;84.76;100888.22;5049476;28;20116;-21
2021/11/09 09:20:40;;;;;;;67.47;31.30;;;;;;;14.66;84.23;100873.63;5049298;28;20068;-21
2021/11/09 09:23:12;;;;;;;67.53;29.58;;;;;;;14.83;83.45;100858.53;5049255;28;20040;-21
2021/11/09 09:57:16;;;;;;;;;;;;;;;16.35;75.28;100832.00;5049395;28;20413;-21
2021/11/09 09:59:44;;;;;;;53.13;26.98;;;;;;;16.04;76.88;100828.69;5048571;28;20384;-21
2021/11/09 10:02:14;;;;;;;75.88;30.25;;;;;;;15.98;78.50;100837.69;5048677;28;20055;-21
2021/11/09 10:04:45;;;;;;;56.17;28.80;;;;;;;16.30;76.61;100831.88;5048392;28;20048;-21
2021/11/09 10:07:11;;;;;;;55.80;29.05;;;;;;;15.86;76.83;100810.00;5048750;28;20041;-21
2021/11/09 10:09:44;;;;;;;52.67;28.17;;;;;;;15.75;77.17;100835.84;5048702;28;20033;-21
2021/11/09 10:12:40;;;;;;;53.28;26.88;;;;;;;15.72;79.37;100836.28;5048227;28;20045;-21
2021/11/09 10:15:21;;;;;;;51.85;27.88;;;;;;;15.47;80.98;100850.75;5031376;28;20056;-21
2021/11/09 10:17:49;;;;;;;62.85;31.25;;;;;;;15.53;81.08;100862.44;5048297;28;20056;-21
2021/11/09 10:20:16;;;;;;;54.95;27.80;;;;;;;15.21;81.30;100854.66;5048270;28;20040;-21
2021/11/09 10:22:44;;;;;;;55.22;29.42;;;;;;;15.13;81.44;100863.06;5048310;28;20037;-21
2021/11/09 10:25:10;;;;;;;;;;;;;;;15.27;80.78;100883.31;5048682;28;20455;-21
2021/11/09 10:27:37;;;;;;;59.92;30.15;;;;;;;14.91;83.30;100886.91;5047469;28;19916;-21
2021/11/09 10:30:21;;;;;;;65.03;31.42;;;;;;;14.52;83.93;100888.22;5048330;28;20029;-21
2021/11/09 10:32:47;;;;;;;69.90;34.85;;;;;;;14.58;84.65;100876.63;5048185;28;20029;-21
2021/11/09 10:35:13;;;;;;;68.07;34.05;;;;;;;14.43;84.44;100891.22;5048415;28;20040;-21
2021/11/09 10:37:40;;;;;;;88.70;39.30;;;;;;;14.42;83.97;100888.75;5048142;28;20056;-22
2021/11/09 10:40:10;;;;;;;120.15;47.60;;;;;;;14.35;85.77;100883.47;5048417;28;20041;-22
2021/11/09 10:42:38;;;;;;;104.75;39.58;;;;;;;14.29;85.21;100873.63;5031029;28;20021;-21
2021/11/09 10:45:10;;;;;;;115.65;46.75;;;;;;;14.13;86.49;100885.75;5048347;28;20025;-20
2021/11/09 10:47:43;;;;;;;117.55;49.45;;;;;;;13.83;86.97;100866.84;5048158;28;20034;-21
2021/11/09 10:50:23;;;;;;;107.82;46.45;;;;;;;13.86;87.29;100858.38;5047899;28;20033;-21
2021/11/09 10:52:58;;;;;;;115.00;47.13;;;;;;;13.74;87.07;100849.44;5048250;28;20024;-21
2021/11/09 11:03:19;;;;;;;107.75;46.42;;;;;;;13.90;87.52;100862.28;5052010;28;20037;-21
2021/11/09 11:05:44;;;;;;;90.57;40.58;;;;;;;13.73;87.96;100880.78;5052021;28;20116;-21
2021/11/09 11:08:12;;;;;;;84.63;37.30;;;;;;;13.69;87.25;100876.06;5051953;28;20510;-21
2021/11/09 11:10:38;;;;;;;97.57;38.63;;;;;;;13.66;86.63;100862.06;5051681;28;20040;-21
2021/11/09 11:13:23;;;;;;;94.82;37.83;;;;;;;13.64;86.80;100858.78;5051762;28;20431;-21
2021/11/09 11:16:07;;;;;;;93.95;38.95;;;;;;;13.80;86.31;100864.63;5051804;28;20033;-21
2021/11/09 11:18:34;;;;;;;93.07;38.17;;;;;;;13.75;87.14;100877.88;5034415;28;20044;-21
2021/11/09 11:21:00;;;;;;;89.23;37.53;;;;;;;13.82;86.76;100884.00;5051797;28;20048;-21
2021/11/09 11:23:26;;;;;;;93.13;39.30;;;;;;;13.72;87.09;100900.56;5051585;28;20033;-21
2021/11/09 11:25:52;;;;;;;95.18;41.92;;;;;;;13.73;87.01;100896.03;5051795;28;20476;-22
2021/11/09 11:28:20;;;;;;;98.80;43.25;;;;;;;13.78;87.17;100904.25;5033314;28;20044;-21
2021/11/09 11:30:46;;;;;;;92.72;40.10;;;;;;;13.51;88.09;100896.41;5033772;28;20037;-21
2021/11/09 11:33:11;;;;;;;92.70;39.40;;;;;;;13.39;88.03;100898.16;5016981;28;20029;-21
2021/11/09 11:35:37;;;;;;;88.55;39.50;;;;;;;13.39;88.51;100896.28;5051441;28;20373;-21
2021/11/09 11:38:03;;;;;;;84.45;38.65;;;;;;;13.44;87.54;100882.25;5033445;28;20036;-21
2021/11/09 11:40:29;;;;;;;95.35;42.15;;;;;;;13.54;87.84;100897.84;5051060;28;20033;-21
2021/11/09 11:42:55;;;;;;;83.30;37.47;;;;;;;13.28;88.03;100905.00;5016963;28;20037;-21
2021/11/09 11:45:20;;;;;;;73.35;35.05;;;;;;;13.10;88.58;100920.94;5051578;28;20032;-21
2021/11/09 11:48:15;;;;;;;87.45;41.13;;;;;;;13.22;89.27;100912.03;5051091;28;20067;-21
2021/11/09 11:50:42;;;;;;;81.60;35.58;;;;;;;13.02;89.46;100904.13;5034142;28;20055;-21
2021/11/09 11:53:07;;;;;;;92.82;41.63;;;;;;;13.12;90.67;100916.19;5051120;28;20066;-21
2021/11/09 11:55:33;;;;;;;83.78;36.10;;;;;;;12.92;90.83;100900.28;5032957;28;20025;-30
2021/11/09 11:58:14;;;;;;;78.40;34.55;;;;;;;13.17;89.26;100908.38;5051018;28;20545;-22
2021/11/09 12:00:56;;;;;;;75.93;36.25;;;;;;;13.19;89.76;100901.75;5050802;28;20036;-21
2021/11/09 12:03:21;;;;;;;73.13;29.60;;;;;;;13.08;89.84;100921.19;5050785;28;20037;-21
2021/11/09 12:05:47;;;;;;;75.65;33.50;;;;;;;13.01;89.94;100920.38;5051068;28;20035;-21
2021/11/09 12:08:14;;;;;;;88.93;48.85;;;;;;;13.02;90.53;100938.13;5050644;28;20065;-22
2021/11/09 12:10:48;;;;;;;79.90;34.80;;;;;;;13.17;89.69;100929.78;5050031;28;20037;-21
2021/11/09 12:13:15;;;;;;;67.57;34.72;;;;;;;13.08;89.86;100937.25;5050451;28;20071;-21
2021/11/09 12:15:44;;;;;;;66.10;31.42;;;;;;;13.15;89.61;100940.72;5050664;28;20076;-21
2021/11/09 12:18:28;;;;;;;70.07;33.42;;;;;;;13.34;88.19;100930.97;5032467;28;20039;-21
2021/11/09 12:21:03;;;;;;;67.97;33.42;;;;;;;13.27;88.84;100935.50;5050405;28;20028;-22
2021/11/09 12:23:33;;;;;;;72.20;30.33;;;;;;;13.12;88.57;100917.06;5050597;28;20029;-21
2021/11/09 12:25:58;;;;;;;61.78;31.33;;;;;;;13.16;88.75;100928.16;5050237;28;20039;-21
2021/11/09 12:28:33;;;;;;;79.47;35.30;;;;;;;13.29;89.77;100928.09;5050196;28;20029;-22
2021/11/09 12:30:59;;;;;;;73.30;34.38;;;;;;;13.31;89.09;100928.69;5050298;28;20029;-21
2021/11/09 12:33:31;;;;;;;70.32;33.75;;;;;;;13.42;88.93;100921.81;5050210;28;20394;-21
2021/11/09 12:36:02;;;;;;;72.07;33.58;;;;;;;13.39;88.31;100939.16;5050216;28;20031;-21
2021/11/09 12:38:33;;;;;;;69.55;34.63;;;;;;;13.14;89.01;100936.41;5050129;28;20061;-21
2021/11/09 12:41:08;;;;;;;71.30;34.22;;;;;;;13.21;89.05;100939.84;5050192;28;20021;-20
2021/11/09 12:43:44;;;;;;;66.78;34.83;;;;;;;13.31;88.84;100957.34;5033663;28;20111;-21
2021/11/09 12:46:13;;;;;;;69.85;34.33;;;;;;;13.17;89.38;100962.75;5049705;28;20033;-21
2021/11/09 12:48:53;;;;;;;71.35;33.97;;;;;;;13.21;89.12;100942.53;5050333;28;20273;-22
2021/11/09 12:51:23;;;;;;;75.70;33.83;;;;;;;13.36;87.92;100949.47;5049395;28;20091;-21
2021/11/09 12:53:50;;;;;;;72.25;33.90;;;;;;;13.28;88.48;100963.94;5050020;28;20032;-21
2021/11/09 12:56:17;;;;;;;73.10;34.17;;;;;;;13.24;89.01;100973.44;5031826;28;20064;-21
2021/11/09 12:59:05;;;;;;;63.88;31.95;;;;;;;13.23;88.31;100987.84;5049761;28;20037;-22
2021/11/09 13:01:38;;;;;;;66.97;33.55;;;;;;;12.93;89.16;100955.44;5049743;28;20444;-22
2021/11/09 13:07:20;;;;;;;70.47;35.22;;;;;;;13.36;89.00;100992.34;5049664;28;20044;-21
2021/11/09 13:09:30;;;;;;;72.63;32.15;;;;;;;13.14;88.03;101000.69;5038824;28;20179;-21
2021/11/09 13:12:01;;;;;;;73.40;33.63;;;;;;;12.95;89.37;100977.47;5031784;28;20044;-21
2021/11/09 13:14:37;;;;;;;76.05;36.03;;;;;;;13.08;88.73;100990.81;5048912;28;20053;-22
2021/11/09 13:17:20;;;;;;;67.82;32.35;;;;;;;13.02;88.67;101013.91;5049495;28;20048;-21
2021/11/09 13:19:48;;;;;;;65.30;32.60;;;;;;;12.94;88.51;101019.50;5049180;28;20036;-21
2021/11/09 13:22:18;;;;;;;75.80;35.87;;;;;;;13.04;89.11;101024.41;5049172;28;20029;-21
2021/11/09 13:24:57;;;;;;;80.43;37.17;;;;;;;13.07;89.17;101015.94;5049355;28;20500;-21
2021/11/09 13:27:38;;;;;;;80.32;37.03;;;;;;;13.30;88.30;101014.63;5049455;28;20350;-21
2021/11/09 13:30:28;;;;;;;83.70;39.17;;;;;;;13.31;87.53;101008.25;5049226;28;20144;-21
2021/11/09 13:32:55;;;;;;;83.95;39.42;;;;;;;13.12;88.51;100994.72;5048426;28;20048;-21
2021/11/09 13:35:26;;;;;;;74.25;35.90;;;;;;;13.14;88.19;101027.47;5049167;28;20382;-21
2021/11/09 13:38:10;;;;;;;71.88;34.65;;;;;;;12.92;88.58;101040.28;5049244;28;20045;-21
2021/11/09 13:40:44;;;;;;;67.43;32.78;;;;;;;12.80;88.13;101034.75;5049057;28;20102;-21
2021/11/09 13:43:10;;;;;;;64.93;32.28;;;;;;;12.75;88.01;101034.59;5048950;28;20086;-22
2021/11/09 13:45:36;;;;;;;68.03;34.33;;;;;;;13.02;87.88;101047.91;5048790;28;20026;-22
2021/11/09 13:48:12;;;;;;;67.07;33.22;;;;;;;12.98;87.27;101025.25;5049307;28;20036;-22
2021/11/09 13:50:38;;;;;;;70.18;34.30;;;;;;;13.00;87.71;101048.09;5049027;28;20036;-21
2021/11/09 13:53:04;;;;;;;63.88;32.53;;;;;;;12.69;88.00;101040.78;5049041;28;20029;-21
2021/11/09 13:55:29;;;;;;;65.22;33.85;;;;;;;12.91;87.60;101048.53;5030590;28;20024;-21
2021/11/09 13:57:55;;;;;;;66.45;30.67;;;;;;;12.89;87.80;101053.28;5014324;28;20075;-21